Hlavní strana
METAR-TAF:

METAR-TAF

Letiště :

Letiště Cayenne

Cayenne, Francouzská Guyana

zeměpisná šířka: 04-50N, zeměpisná délka: 052-22W, výška: 105 m

Aktuální stav počasí

Zpráva byla vytvořena před 18 minutami, v 22:30 UTC
Východní vítr 3 kt
Teplota 27°C
Vlhkost vzduchu 74%
Tlak 1015 hPa
Viditelnost 10 km a více
Skoro jasno ve výšce 2500 ft
Zataženo ve výšce 7400 ft

METAR: SOCA 152230Z AUTO 08003KT 9999 FEW025 OVC074 27/22 Q1015 NOSIG

Čas: 19:48 (22:48 UTC)

Předpověď počasí

Zpráva byla vytvořena před 6 hodinami a 48 minutami, v 16:00 UTC
Předpověď platná od 15 v 18 UTC do 16 v 18 UTC
Východní vítr 8 kt
Viditelnost 10 km a více
Skoro jasno ve výšce 2200 ft
Polojasno ve výšce 6000 ft
Změna
od 15 v 21 UTC do 15 v 23 UTC
vítr z různých směrů 3 kt
Skoro jasno ve výšce 2000 ft
Od 16 v 1200 UTC
Východoseverovýchodní vítr 12 kt
Viditelnost 10 km a více
Polojasno ve výšce 2300 ft

TAF: SOCA 151600Z 1518/1618 08008KT 9999 FEW022 SCT060 BECMG 1521/1523 VRB03KT FEW020 FM161200 07012KT 9999 SCT023

Stav a předpovědi počasí z více než 4 000 letišť (zprávy METAR a TAF).

Červené a žluté tečky na mapě představují dostupné meteorologické stanice.

Když kurzor umístíte na tečku, zobrazí se název stanice.

Pak kliknutím zobrazíte stav a předpověď počasí.

Chcete-li změnit mapu, kliknutím na zelené tlačítko se znaménkem +mapu přiblížíte, kliknutím na zelené tlačítko se znaménkem – mapu oddálíte a kliknutím na zelené šipky přejdete na sousední mapy.


METAR-TAF: